WZZ33R LYTV-EGKK
Flight info
| Callsign | WZZ33R |
|---|---|
| Flight time | N/A |
| Altitude | 36000 |
| Route | NIK DCT GACMO DCT VRANA DCT ELTIB DCT RUGOG DCT RIFEN DCT RISOM DCT NAXAV DCT SAFFA DCT ELMUR DCT RIPUS DCT DITON DCT HOC DCT LUL DCT RLP DCT ROTSI DCT KOTUN DCT NINAL DCT KESAX DCT KUNAV |
| Aircraft | A321/M-SDE3FGHIRWY/LB1 |
Departure
| Time | 2026-05-09 09:53 |
|---|---|
| Airport | Tivat Airport (LYTV) |
Arrival
| Time | N/A |
|---|---|
| Airport | London Gatwick Airport (EGKK) |
| Time | Latitude | Longitude | Altitude | Speed | Heading |
|---|---|---|---|---|---|
| 2026-05-09 09:15 | 42.41198 | 18.71707 | 8 ft | 0 kts | 180° |
| 2026-05-09 09:48 | 42.41192 | 18.71707 | 8 ft | 2 kts | 180° |
| 2026-05-09 09:48 | 42.41164 | 18.71707 | 7 ft | 6 kts | 179° |
| 2026-05-09 09:49 | 42.41117 | 18.71737 | 6 ft | 9 kts | 141° |
| 2026-05-09 09:49 | 42.41066 | 18.71796 | 7 ft | 10 kts | 138° |
| 2026-05-09 09:49 | 42.41010 | 18.71850 | 7 ft | 10 kts | 168° |
| 2026-05-09 09:49 | 42.40950 | 18.71796 | 6 ft | 11 kts | 213° |
| 2026-05-09 09:50 | 42.40880 | 18.71841 | 5 ft | 15 kts | 139° |
| 2026-05-09 09:50 | 42.40777 | 18.71961 | 2 ft | 24 kts | 139° |
| 2026-05-09 09:50 | 42.40632 | 18.72131 | 0 ft | 32 kts | 139° |
| 2026-05-09 09:50 | 42.40460 | 18.72332 | 2 ft | 33 kts | 139° |
| 2026-05-09 09:51 | 42.40291 | 18.72528 | 6 ft | 31 kts | 140° |
| 2026-05-09 09:51 | 42.40123 | 18.72721 | 4 ft | 32 kts | 139° |
| 2026-05-09 09:51 | 42.39954 | 18.72920 | 1 ft | 33 kts | 139° |
| 2026-05-09 09:51 | 42.39782 | 18.73121 | 2 ft | 32 kts | 139° |
| 2026-05-09 09:52 | 42.39677 | 18.73238 | 2 ft | 11 kts | 152° |
| 2026-05-09 09:52 | 42.39615 | 18.73276 | 3 ft | 7 kts | 116° |
| 2026-05-09 09:52 | 42.39642 | 18.73296 | 3 ft | 5 kts | 337° |
| 2026-05-09 09:52 | 42.39677 | 18.73255 | 3 ft | 8 kts | 319° |
| 2026-05-09 09:53 | 42.39760 | 18.73157 | 3 ft | 40 kts | 319° |
| 2026-05-09 09:53 | 42.40170 | 18.72672 | 5 ft | 113 kts | 320° |
| 2026-05-09 09:53 | 42.40910 | 18.71796 | 71 ft | 161 kts | 319° |
| 2026-05-09 09:53 | 42.41744 | 18.70809 | 745 ft | 160 kts | 310° |
| 2026-05-09 09:54 | 42.42110 | 18.69410 | 1345 ft | 164 kts | 266° |
| 2026-05-09 09:54 | 42.41661 | 18.67945 | 1637 ft | 185 kts | 226° |
| 2026-05-09 09:54 | 42.40609 | 18.66789 | 1994 ft | 202 kts | 218° |
| 2026-05-09 09:54 | 42.39488 | 18.65602 | 2606 ft | 207 kts | 219° |
| 2026-05-09 09:55 | 42.38350 | 18.64384 | 3230 ft | 210 kts | 219° |
| 2026-05-09 09:55 | 42.37212 | 18.63162 | 3774 ft | 213 kts | 219° |
| 2026-05-09 09:55 | 42.36023 | 18.61879 | 4327 ft | 217 kts | 219° |
| 2026-05-09 09:55 | 42.34764 | 18.60796 | 4866 ft | 220 kts | 198° |
| 2026-05-09 09:56 | 42.33242 | 18.60687 | 5372 ft | 223 kts | 165° |
| 2026-05-09 09:56 | 42.31906 | 18.61688 | 5907 ft | 222 kts | 132° |
| 2026-05-09 09:56 | 42.31125 | 18.63464 | 6449 ft | 221 kts | 110° |
| 2026-05-09 09:56 | 42.30580 | 18.65407 | 6977 ft | 221 kts | 100° |
| 2026-05-09 09:57 | 42.30655 | 18.67445 | 7455 ft | 220 kts | 68° |
| 2026-05-09 09:57 | 42.31520 | 18.69142 | 7791 ft | 228 kts | 38° |
| 2026-05-09 09:57 | 42.33005 | 18.70114 | 7904 ft | 251 kts | 19° |
| 2026-05-09 09:57 | 42.34722 | 18.70948 | 8259 ft | 270 kts | 19° |
| 2026-05-09 09:58 | 42.36506 | 18.71813 | 8950 ft | 275 kts | 19° |
| 2026-05-09 09:58 | 42.38320 | 18.72702 | 9729 ft | 278 kts | 19° |
| 2026-05-09 09:58 | 42.40149 | 18.73605 | 10451 ft | 281 kts | 19° |
| 2026-05-09 09:58 | 42.41999 | 18.74526 | 11135 ft | 285 kts | 19° |
| 2026-05-09 09:59 | 42.43873 | 18.75462 | 11815 ft | 289 kts | 19° |
| 2026-05-09 09:59 | 42.45771 | 18.76411 | 12505 ft | 292 kts | 18° |
| 2026-05-09 09:59 | 42.47746 | 18.77397 | 12804 ft | 312 kts | 18° |
| 2026-05-09 09:59 | 42.49859 | 18.78448 | 12964 ft | 334 kts | 19° |
| 2026-05-09 10:00 | 42.52087 | 18.79558 | 13356 ft | 346 kts | 19° |
| 2026-05-09 10:00 | 42.54370 | 18.80699 | 13965 ft | 351 kts | 18° |
| 2026-05-09 10:00 | 42.56648 | 18.81842 | 14533 ft | 355 kts | 18° |
| 2026-05-09 10:00 | 42.58975 | 18.83012 | 15129 ft | 358 kts | 18° |
| 2026-05-09 10:01 | 42.61324 | 18.84191 | 15716 ft | 362 kts | 18° |
| 2026-05-09 10:01 | 42.63705 | 18.85385 | 16325 ft | 366 kts | 18° |
| 2026-05-09 10:01 | 42.66104 | 18.86591 | 16903 ft | 370 kts | 18° |
| 2026-05-09 10:01 | 42.68530 | 18.87809 | 17486 ft | 374 kts | 18° |
| 2026-05-09 10:02 | 42.70987 | 18.89042 | 18059 ft | 378 kts | 18° |
| 2026-05-09 10:02 | 42.73489 | 18.90141 | 18597 ft | 379 kts | 9° |
| 2026-05-09 10:02 | 42.76104 | 18.90499 | 19104 ft | 378 kts | 356° |
| 2026-05-09 10:02 | 42.78704 | 18.90017 | 19624 ft | 378 kts | 343° |
| 2026-05-09 10:03 | 42.81154 | 18.88730 | 20167 ft | 377 kts | 330° |
| 2026-05-09 10:03 | 42.83346 | 18.86770 | 20706 ft | 379 kts | 323° |
| 2026-05-09 10:03 | 42.85485 | 18.84644 | 21246 ft | 381 kts | 323° |
| 2026-05-09 10:03 | 42.87632 | 18.82497 | 21783 ft | 384 kts | 322° |
| 2026-05-09 10:04 | 42.89795 | 18.80335 | 22340 ft | 386 kts | 322° |
| 2026-05-09 10:04 | 42.91971 | 18.78159 | 22858 ft | 389 kts | 323° |